Time;durP1;ratioP1;P1;durP2;ratioP2;P2;SDS_P1;SDS_P2;PMS_P1;PMS_P2;Temp;Humidity;BMP_temperature;BMP_pressure;BME280_temperature;BME280_humidity;BME280_pressure;Samples;Min_cycle;Max_cycle;Signal;HPM_P1;HPM_P2
2022/05/07 00:01:27;;;;;;;9.60;5.78;;;;;;;;;;4404460;32;20280;-55
2022/05/07 00:03:52;;;;;;;12.68;5.37;;;;;;;;;;4404453;32;20247;-56
2022/05/07 00:06:17;;;;;;;11.70;5.68;;;;;;;;;;4395974;32;20304;-55
2022/05/07 00:08:43;;;;;;;10.55;5.82;;;;;;;;;;4396633;32;20246;-56
2022/05/07 00:11:08;;;;;;;11.55;5.65;;;;;;;;;;4390606;32;20331;-56
2022/05/07 00:13:34;;;;;;;9.73;6.12;;;;;;;;;;4404224;32;20225;-57
2022/05/07 00:18:43;;;;;;;13.82;9.43;;;;;;;;;;4404279;32;20278;-55
2022/05/07 00:21:08;;;;;;;15.88;10.13;;;;;;;;;;4404422;32;20343;-56
2022/05/07 00:23:34;;;;;;;12.77;9.52;;;;;;;;;;4403839;32;20225;-56
2022/05/07 00:25:59;;;;;;;15.68;10.00;;;;;;;;;;4404126;32;20260;-55
2022/05/07 00:28:25;;;;;;;13.10;7.12;;;;;;;;;;4404070;32;20221;-56
2022/05/07 00:30:50;;;;;;;8.02;6.53;;;;;;;;;;4404183;32;20359;-55
2022/05/07 00:33:16;;;;;;;7.53;4.75;;;;;;;;;;4404272;32;20217;-56
2022/05/07 00:35:41;;;;;;;8.55;5.57;;;;;;;;;;4403619;32;20284;-56
2022/05/07 00:38:07;;;;;;;8.90;5.25;;;;;;;;;;4403937;32;20237;-56
2022/05/07 00:40:32;;;;;;;7.85;5.10;;;;;;;;;;4394472;32;20291;-55
2022/05/07 00:42:58;;;;;;;7.60;5.15;;;;;;;;;;4388940;32;20396;-56
2022/05/07 00:45:23;;;;;;;6.62;5.25;;;;;;;;;;4389164;32;20273;-55
2022/05/07 00:47:49;;;;;;;8.10;5.75;;;;;;;;;;4388737;32;20288;-56
2022/05/07 00:53:00;;;;;;;8.50;5.00;;;;;;;;;;4403838;32;20315;-56
2022/05/07 00:55:29;;;;;;;8.20;5.32;;;;;;;;;;4404100;32;20206;-56
2022/05/07 00:57:55;;;;;;;5.85;4.65;;;;;;;;;;4389833;32;20271;-56
2022/05/07 01:00:20;;;;;;;5.97;4.35;;;;;;;;;;4405759;32;20257;-56
2022/05/07 01:02:47;;;;;;;6.12;5.03;;;;;;;;;;4407294;32;20213;-56
2022/05/07 01:05:12;;;;;;;9.02;5.10;;;;;;;;;;4392978;32;20244;-56
2022/05/07 01:07:38;;;;;;;7.50;5.10;;;;;;;;;;4406650;32;20312;-55
2022/05/07 01:10:04;;;;;;;8.07;4.05;;;;;;;;;;4406731;32;20339;-56
2022/05/07 01:12:30;;;;;;;7.97;4.60;;;;;;;;;;4406830;32;20286;-56
2022/05/07 01:14:57;;;;;;;9.95;4.20;;;;;;;;;;4420832;32;20284;-57
2022/05/07 01:17:23;;;;;;;5.00;4.15;;;;;;;;;;4421849;32;20240;-55
2022/05/07 01:19:51;;;;;;;7.05;5.10;;;;;;;;;;4422024;32;20296;-56
2022/05/07 01:22:18;;;;;;;12.27;4.80;;;;;;;;;;4421597;32;20299;-55
2022/05/07 01:24:43;;;;;;;6.03;4.35;;;;;;;;;;4421802;32;20208;-56
2022/05/07 01:27:09;;;;;;;5.62;5.00;;;;;;;;;;4421631;32;20266;-55
2022/05/07 01:29:34;;;;;;;5.82;4.90;;;;;;;;;;4421631;32;20268;-55
2022/05/07 01:32:00;;;;;;;8.95;4.82;;;;;;;;;;4421538;32;20315;-56
2022/05/07 01:34:26;;;;;;;6.50;4.83;;;;;;;;;;4421698;32;20639;-56
2022/05/07 01:36:51;;;;;;;11.27;4.80;;;;;;;;;;4419253;32;20343;-55
2022/05/07 01:39:17;;;;;;;7.82;4.78;;;;;;;;;;4394133;32;20278;-55
2022/05/07 01:41:42;;;;;;;8.23;4.32;;;;;;;;;;4406293;32;20668;-55
2022/05/07 01:44:08;;;;;;;6.28;4.57;;;;;;;;;;4406682;32;20355;-56
2022/05/07 01:49:18;;;;;;;8.90;4.40;;;;;;;;;;4406504;32;20698;-56
2022/05/07 01:51:43;;;;;;;7.12;4.93;;;;;;;;;;4406189;32;20205;-55
2022/05/07 01:54:09;;;;;;;13.02;5.28;;;;;;;;;;4407223;32;20244;-55
2022/05/07 01:56:34;;;;;;;6.85;4.87;;;;;;;;;;4406265;32;20222;-55
2022/05/07 01:58:59;;;;;;;6.75;4.85;;;;;;;;;;4396641;32;20233;-55
2022/05/07 02:01:25;;;;;;;6.72;4.85;;;;;;;;;;4377352;32;20309;-55
2022/05/07 02:03:51;;;;;;;7.65;4.72;;;;;;;;;;4402034;32;20320;-55
2022/05/07 02:06:17;;;;;;;11.98;5.18;;;;;;;;;;4405333;32;20763;-55
2022/05/07 02:08:43;;;;;;;8.30;4.70;;;;;;;;;;4406245;32;20294;-55
2022/05/07 02:11:08;;;;;;;12.43;5.35;;;;;;;;;;4406064;32;20734;-56
2022/05/07 02:13:34;;;;;;;12.35;9.30;;;;;;;;;;4406028;32;20229;-56
2022/05/07 02:16:00;;;;;;;10.90;8.77;;;;;;;;;;4405750;32;20244;-55
2022/05/07 02:18:25;;;;;;;14.07;9.95;;;;;;;;;;4392217;32;20248;-56
2022/05/07 02:20:53;;;;;;;12.55;9.88;;;;;;;;;;4405894;32;20656;-57
2022/05/07 02:23:18;;;;;;;18.47;11.37;;;;;;;;;;4405919;32;20300;-56
2022/05/07 02:25:44;;;;;;;9.53;6.97;;;;;;;;;;4405833;32;20333;-56
2022/05/07 02:28:09;;;;;;;8.33;6.70;;;;;;;;;;4406039;32;20240;-56
2022/05/07 02:30:35;;;;;;;9.50;6.53;;;;;;;;;;4405801;32;20311;-55
2022/05/07 02:33:00;;;;;;;12.03;6.43;;;;;;;;;;4396436;32;20230;-56
2022/05/07 02:35:26;;;;;;;6.13;4.90;;;;;;;;;;4390217;32;20671;-56
2022/05/07 02:37:51;;;;;;;10.00;5.30;;;;;;;;;;4394494;32;20236;-56
2022/05/07 02:40:16;;;;;;;5.23;4.53;;;;;;;;;;4391571;32;20474;-56
2022/05/07 02:42:44;;;;;;;10.18;5.90;;;;;;;;;;4405539;32;20243;-56
2022/05/07 02:45:11;;;;;;;18.67;5.63;;;;;;;;;;4405327;32;20225;-56
2022/05/07 02:47:39;;;;;;;14.23;5.93;;;;;;;;;;4405259;32;20295;-55
2022/05/07 02:50:06;;;;;;;7.80;5.37;;;;;;;;;;4405615;32;20206;-56
2022/05/07 02:52:36;;;;;;;11.02;4.75;;;;;;;;;;4405328;32;20222;-56
2022/05/07 02:55:06;;;;;;;5.87;4.40;;;;;;;;;;4405239;32;20545;-56
2022/05/07 02:57:31;;;;;;;7.27;4.33;;;;;;;;;;4391397;32;20345;-55
2022/05/07 02:59:57;;;;;;;7.93;5.00;;;;;;;;;;4391007;32;20384;-57
2022/05/07 03:02:22;;;;;;;9.17;6.20;;;;;;;;;;4405038;32;20365;-56
2022/05/07 03:04:49;;;;;;;7.83;5.63;;;;;;;;;;4405415;32;20276;-56
2022/05/07 03:07:15;;;;;;;15.67;6.43;;;;;;;;;;4403203;32;20209;-56
2022/05/07 03:09:40;;;;;;;14.80;7.13;;;;;;;;;;4404817;32;20276;-55
2022/05/07 03:12:06;;;;;;;10.77;7.27;;;;;;;;;;4404874;32;20594;-55
2022/05/07 03:14:32;;;;;;;24.03;8.77;;;;;;;;;;4405183;32;20264;-56
2022/05/07 03:16:58;;;;;;;21.73;10.07;;;;;;;;;;4390918;32;20697;-56
2022/05/07 03:19:24;;;;;;;23.52;10.77;;;;;;;;;;4404757;32;20352;-56
2022/05/07 03:21:49;;;;;;;23.17;10.60;;;;;;;;;;4404112;32;20742;-56
2022/05/07 03:24:15;;;;;;;14.55;8.02;;;;;;;;;;4404479;32;20375;-55
2022/05/07 03:26:40;;;;;;;11.38;7.35;;;;;;;;;;4404601;32;20615;-55
2022/05/07 03:29:06;;;;;;;13.55;6.07;;;;;;;;;;4396249;32;20732;-56
2022/05/07 03:31:31;;;;;;;12.35;6.20;;;;;;;;;;4387908;32;20352;-56
2022/05/07 03:33:57;;;;;;;13.75;5.72;;;;;;;;;;4389470;32;20639;-56
2022/05/07 03:36:22;;;;;;;14.87;5.10;;;;;;;;;;4400822;32;20284;-56
2022/05/07 03:38:48;;;;;;;8.00;5.10;;;;;;;;;;4409032;32;20300;-56
2022/05/07 03:41:14;;;;;;;8.68;4.57;;;;;;;;;;4404491;32;20330;-56
2022/05/07 03:43:40;;;;;;;10.50;5.03;;;;;;;;;;4404496;32;20257;-56
2022/05/07 03:46:07;;;;;;;11.33;4.93;;;;;;;;;;4390994;32;20311;-56
2022/05/07 03:48:32;;;;;;;9.83;6.27;;;;;;;;;;4417453;32;20301;-56
2022/05/07 03:50:58;;;;;;;7.75;5.10;;;;;;;;;;4419597;32;20356;-57
2022/05/07 03:53:30;;;;;;;10.97;5.60;;;;;;;;;;4406060;32;20680;-56
2022/05/07 03:55:59;;;;;;;8.18;5.00;;;;;;;;;;4419536;32;20704;-56
2022/05/07 03:58:26;;;;;;;13.93;5.07;;;;;;;;;;4399805;32;20262;-56
2022/05/07 04:00:55;;;;;;;9.37;5.37;;;;;;;;;;4404145;32;20222;-56
2022/05/07 04:03:21;;;;;;;15.77;5.67;;;;;;;;;;4403959;32;20252;-56
2022/05/07 04:05:47;;;;;;;12.95;6.10;;;;;;;;;;4403809;32;20209;-55
2022/05/07 04:08:13;;;;;;;13.25;5.40;;;;;;;;;;4399943;32;20287;-55
2022/05/07 04:10:39;;;;;;;10.25;5.30;;;;;;;;;;4389025;32;20304;-56
2022/05/07 04:13:05;;;;;;;11.20;4.80;;;;;;;;;;4389345;32;20217;-55
2022/05/07 04:15:31;;;;;;;14.43;5.83;;;;;;;;;;4388819;32;20318;-57
2022/05/07 04:17:58;;;;;;;8.80;5.28;;;;;;;;;;4375407;32;20651;-56
2022/05/07 04:20:24;;;;;;;27.92;6.55;;;;;;;;;;4375181;32;20254;-55
2022/05/07 04:22:50;;;;;;;10.27;6.13;;;;;;;;;;4389155;32;20214;-56
2022/05/07 04:25:15;;;;;;;18.33;8.10;;;;;;;;;;4396920;32;20298;-56
2022/05/07 04:27:41;;;;;;;27.87;11.10;;;;;;;;;;4404021;32;20631;-56
2022/05/07 04:30:07;;;;;;;23.07;10.23;;;;;;;;;;4403938;32;20311;-55
2022/05/07 04:32:33;;;;;;;27.97;10.70;;;;;;;;;;4390347;32;20308;-55
2022/05/07 04:34:58;;;;;;;22.17;9.27;;;;;;;;;;4405482;32;20417;-56
2022/05/07 04:37:25;;;;;;;20.57;10.70;;;;;;;;;;4391843;32;20225;-56
2022/05/07 04:39:51;;;;;;;21.95;11.23;;;;;;;;;;4407288;32;20699;-56
2022/05/07 04:42:16;;;;;;;14.03;8.90;;;;;;;;;;4406887;32;20369;-56
2022/05/07 04:44:43;;;;;;;13.93;7.53;;;;;;;;;;4407067;32;20712;-55
2022/05/07 04:47:08;;;;;;;15.33;7.57;;;;;;;;;;4406854;32;20284;-55
2022/05/07 04:49:35;;;;;;;21.55;8.25;;;;;;;;;;4406893;32;20707;-55
2022/05/07 04:52:01;;;;;;;21.45;7.72;;;;;;;;;;4406937;32;20198;-55
2022/05/07 04:54:26;;;;;;;7.47;5.47;;;;;;;;;;4410286;32;20397;-56
2022/05/07 04:56:52;;;;;;;16.10;6.12;;;;;;;;;;4422155;32;20266;-58
2022/05/07 04:59:19;;;;;;;11.18;5.95;;;;;;;;;;4399591;32;20542;-56
2022/05/07 05:01:45;;;;;;;9.05;6.10;;;;;;;;;;4390200;32;20230;-55
2022/05/07 05:04:11;;;;;;;13.27;6.57;;;;;;;;;;4402521;32;20214;-55
2022/05/07 05:06:37;;;;;;;17.62;6.68;;;;;;;;;;4399883;32;20255;-55
2022/05/07 05:09:04;;;;;;;12.13;6.60;;;;;;;;;;4406931;32;20225;-55
2022/05/07 05:11:30;;;;;;;20.25;9.23;;;;;;;;;;4406673;32;20201;-56
2022/05/07 05:13:55;;;;;;;23.58;8.23;;;;;;;;;;4406724;32;20399;-56
2022/05/07 05:16:21;;;;;;;9.93;6.60;;;;;;;;;;4406673;32;20295;-56
2022/05/07 05:18:47;;;;;;;14.93;7.07;;;;;;;;;;4406388;32;20248;-55
2022/05/07 05:21:12;;;;;;;14.00;6.60;;;;;;;;;;4392479;32;20695;-56
2022/05/07 05:23:37;;;;;;;9.10;6.40;;;;;;;;;;4406656;32;20335;-56
2022/05/07 05:26:03;;;;;;;17.98;7.12;;;;;;;;;;4406261;32;20713;-55
2022/05/07 05:28:28;;;;;;;13.25;6.65;;;;;;;;;;4406449;32;20822;-56
2022/05/07 05:30:55;;;;;;;13.88;6.45;;;;;;;;;;4406261;32;20291;-56
2022/05/07 05:33:21;;;;;;;14.75;6.47;;;;;;;;;;4406476;32;20217;-55
2022/05/07 05:35:47;;;;;;;22.02;6.70;;;;;;;;;;4405982;32;20740;-56
2022/05/07 05:38:13;;;;;;;17.42;8.82;;;;;;;;;;4389780;32;20238;-56
2022/05/07 05:40:38;;;;;;;8.87;5.37;;;;;;;;;;4401719;32;20354;-56
2022/05/07 05:43:04;;;;;;;12.77;5.87;;;;;;;;;;4406466;32;20282;-56
2022/05/07 05:45:29;;;;;;;16.13;5.33;;;;;;;;;;4405869;32;20284;-55
2022/05/07 05:47:54;;;;;;;14.40;6.67;;;;;;;;;;4406066;32;20328;-54
2022/05/07 05:50:21;;;;;;;16.77;5.23;;;;;;;;;;4405729;32;20291;-55
2022/05/07 05:52:46;;;;;;;11.30;5.72;;;;;;;;;;4406514;32;20233;-55
2022/05/07 05:55:12;;;;;;;20.65;6.45;;;;;;;;;;4405899;32;20311;-55
2022/05/07 05:57:38;;;;;;;23.27;6.05;;;;;;;;;;4405607;32;20255;-57
2022/05/07 06:00:07;;;;;;;17.85;5.82;;;;;;;;;;4405854;32;20330;-55
2022/05/07 06:02:33;;;;;;;17.55;5.70;;;;;;;;;;4393794;32;20553;-55
2022/05/07 06:04:59;;;;;;;10.80;5.55;;;;;;;;;;4406086;32;20261;-55
2022/05/07 06:07:24;;;;;;;11.73;5.45;;;;;;;;;;4405800;32;20691;-55
2022/05/07 06:09:50;;;;;;;7.40;4.72;;;;;;;;;;4405850;32;20803;-55
2022/05/07 06:12:15;;;;;;;10.25;4.12;;;;;;;;;;4392003;32;20263;-55
2022/05/07 06:14:41;;;;;;;13.57;4.65;;;;;;;;;;4405656;32;20681;-55
2022/05/07 06:17:07;;;;;;;16.65;5.97;;;;;;;;;;4405876;32;20202;-56
2022/05/07 06:19:32;;;;;;;17.85;5.18;;;;;;;;;;4405552;32;20327;-56
2022/05/07 06:21:58;;;;;;;14.52;5.40;;;;;;;;;;4405524;32;20288;-56
2022/05/07 06:29:51;;;;;;;8.63;5.03;;;;;;;;;;4405202;32;20232;-55
2022/05/07 06:32:18;;;;;;;8.82;3.90;;;;;;;;;;4405721;32;20217;-55
2022/05/07 06:34:43;;;;;;;8.32;4.97;;;;;;;;;;4405435;32;20292;-55
2022/05/07 06:37:09;;;;;;;13.80;4.85;;;;;;;;;;4417746;32;20406;-55
2022/05/07 06:39:34;;;;;;;12.45;5.28;;;;;;;;;;4389708;32;20324;-55
2022/05/07 06:42:00;;;;;;;13.60;5.37;;;;;;;;;;4389344;32;20260;-56
2022/05/07 06:44:25;;;;;;;14.53;5.63;;;;;;;;;;4389588;32;20261;-55
2022/05/07 06:46:51;;;;;;;9.40;5.32;;;;;;;;;;4389777;32;20273;-56
2022/05/07 06:49:18;;;;;;;10.40;5.15;;;;;;;;;;4389554;32;20307;-56
2022/05/07 06:51:44;;;;;;;10.65;4.95;;;;;;;;;;4389357;32;20267;-55
2022/05/07 06:54:09;;;;;;;10.55;5.20;;;;;;;;;;4392977;32;20248;-55
2022/05/07 06:56:35;;;;;;;11.10;5.03;;;;;;;;;;4415835;32;20344;-56
2022/05/07 06:59:01;;;;;;;12.52;5.28;;;;;;;;;;4389373;32;20323;-56
2022/05/07 07:01:27;;;;;;;9.00;4.85;;;;;;;;;;4389218;32;20288;-55
2022/05/07 07:03:52;;;;;;;9.38;4.90;;;;;;;;;;4390875;32;20340;-56
2022/05/07 07:06:18;;;;;;;15.20;5.62;;;;;;;;;;4404085;32;20296;-55
2022/05/07 07:08:43;;;;;;;14.27;5.25;;;;;;;;;;4404694;32;20229;-55
2022/05/07 07:11:09;;;;;;;12.63;4.60;;;;;;;;;;4404249;32;20294;-55
2022/05/07 07:13:35;;;;;;;10.75;4.53;;;;;;;;;;4404165;32;20229;-56
2022/05/07 07:16:01;;;;;;;13.75;4.75;;;;;;;;;;4404190;32;20291;-55
2022/05/07 07:18:26;;;;;;;10.82;4.22;;;;;;;;;;4404234;32;20299;-54
2022/05/07 07:20:52;;;;;;;8.25;4.35;;;;;;;;;;4404680;32;20278;-54
2022/05/07 07:23:17;;;;;;;7.65;5.45;;;;;;;;;;4404229;32;20329;-55
2022/05/07 07:25:43;;;;;;;11.63;4.50;;;;;;;;;;4403791;32;20273;-57
2022/05/07 07:28:10;;;;;;;8.93;3.63;;;;;;;;;;4404115;32;20327;-55
2022/05/07 07:30:37;;;;;;;7.83;3.83;;;;;;;;;;4403854;32;20641;-57
2022/05/07 07:33:04;;;;;;;8.80;4.00;;;;;;;;;;4403990;32;20221;-56
2022/05/07 07:35:30;;;;;;;8.70;4.05;;;;;;;;;;4403572;32;20568;-55
2022/05/07 07:37:56;;;;;;;7.97;3.95;;;;;;;;;;4403601;32;20264;-55
2022/05/07 07:40:21;;;;;;;4.68;3.75;;;;;;;;;;4404487;32;20242;-56
2022/05/07 07:42:47;;;;;;;8.07;3.65;;;;;;;;;;4404520;32;20221;-55
2022/05/07 07:47:57;;;;;;;7.43;4.55;;;;;;;;;;4404329;32;20347;-54
2022/05/07 07:50:34;;;;;;;8.30;4.72;;;;;;;;;;4404118;32;20289;-55
2022/05/07 07:53:01;;;;;;;15.40;4.85;;;;;;;;;;4401576;32;20213;-55
2022/05/07 07:55:27;;;;;;;5.68;4.50;;;;;;;;;;4407884;32;20356;-56
2022/05/07 07:57:54;;;;;;;12.80;4.07;;;;;;;;;;4415132;32;20704;-56
2022/05/07 08:00:20;;;;;;;5.57;3.97;;;;;;;;;;4389039;32;20224;-56
2022/05/07 08:02:49;;;;;;;13.57;4.90;;;;;;;;;;4392730;32;20233;-56
2022/05/07 08:05:16;;;;;;;4.97;3.97;;;;;;;;;;4403784;32;20197;-56
2022/05/07 08:13:12;;;;;;;8.68;4.78;;;;;;;;;;4404218;32;20295;-55
2022/05/07 08:15:38;;;;;;;9.07;5.05;;;;;;;;;;4403418;32;20297;-56
2022/05/07 08:18:05;;;;;;;9.13;3.97;;;;;;;;;;4403996;32;20469;-55
2022/05/07 08:20:30;;;;;;;9.23;4.97;;;;;;;;;;4403803;32;20666;-55
2022/05/07 08:22:56;;;;;;;8.02;4.95;;;;;;;;;;4404221;32;20217;-55
2022/05/07 08:25:21;;;;;;;10.85;5.18;;;;;;;;;;4404207;32;20280;-54
2022/05/07 08:27:47;;;;;;;11.52;5.53;;;;;;;;;;4403925;32;20243;-54
2022/05/07 08:30:13;;;;;;;14.38;4.72;;;;;;;;;;4404288;32;20564;-55
2022/05/07 08:32:38;;;;;;;8.45;5.43;;;;;;;;;;4403897;32;20388;-55
2022/05/07 08:35:04;;;;;;;9.40;4.93;;;;;;;;;;4404216;32;20315;-56
2022/05/07 08:37:30;;;;;;;7.45;4.75;;;;;;;;;;4387546;32;20214;-55
2022/05/07 08:40:01;;;;;;;8.32;5.25;;;;;;;;;;4388455;32;20268;-55
2022/05/07 08:42:29;;;;;;;11.23;5.93;;;;;;;;;;4388825;32;20226;-55
2022/05/07 08:44:56;;;;;;;16.45;6.05;;;;;;;;;;4389076;32;20228;-56
2022/05/07 08:47:23;;;;;;;10.82;5.95;;;;;;;;;;4388680;32;20210;-55
2022/05/07 08:49:50;;;;;;;8.50;5.70;;;;;;;;;;4388238;32;20338;-55
2022/05/07 08:52:17;;;;;;;12.30;6.85;;;;;;;;;;4374673;32;20225;-56
2022/05/07 08:54:44;;;;;;;8.48;5.62;;;;;;;;;;4398416;32;20281;-55
2022/05/07 08:57:10;;;;;;;6.68;5.20;;;;;;;;;;4418978;32;20198;-56
2022/05/07 08:59:36;;;;;;;7.75;5.28;;;;;;;;;;4405408;32;20296;-57
2022/05/07 09:02:02;;;;;;;10.05;6.62;;;;;;;;;;4402991;32;20258;-56
2022/05/07 09:04:28;;;;;;;14.95;5.97;;;;;;;;;;4388519;32;20547;-56
2022/05/07 09:07:01;;;;;;;8.27;5.37;;;;;;;;;;4398530;32;20656;-55
2022/05/07 09:09:30;;;;;;;11.07;5.62;;;;;;;;;;4403858;32;20507;-56
2022/05/07 09:11:56;;;;;;;5.55;4.75;;;;;;;;;;4403610;32;20330;-56
2022/05/07 09:14:28;;;;;;;10.10;4.82;;;;;;;;;;4404349;32;20367;-57
2022/05/07 09:16:58;;;;;;;7.90;4.85;;;;;;;;;;4403248;32;20264;-55
2022/05/07 09:19:27;;;;;;;7.65;3.78;;;;;;;;;;4403087;32;20684;-55
2022/05/07 09:22:13;;;;;;;8.60;4.37;;;;;;;;;;4391898;32;20218;-57
2022/05/07 09:24:39;;;;;;;9.15;3.83;;;;;;;;;;4405620;32;20752;-55
2022/05/07 09:27:05;;;;;;;12.02;3.62;;;;;;;;;;4406218;32;20271;-55
2022/05/07 09:29:32;;;;;;;8.93;4.10;;;;;;;;;;4406172;32;20280;-55
2022/05/07 09:32:09;;;;;;;10.32;4.68;;;;;;;;;;4406002;32;20224;-55
2022/05/07 09:37:34;;;;;;;6.15;4.35;;;;;;;;;;4406052;32;20641;-55
2022/05/07 09:40:03;;;;;;;12.13;4.22;;;;;;;;;;4406012;32;20216;-55
2022/05/07 09:42:30;;;;;;;4.47;3.70;;;;;;;;;;4405889;32;20297;-56
2022/05/07 09:44:56;;;;;;;6.28;3.47;;;;;;;;;;4391763;32;20229;-55
2022/05/07 09:47:22;;;;;;;7.55;3.80;;;;;;;;;;4391077;32;20703;-56
2022/05/07 09:52:33;;;;;;;5.25;3.60;;;;;;;;;;4389967;32;20248;-56
2022/05/07 09:57:43;;;;;;;8.48;3.62;;;;;;;;;;4419437;32;20251;-55
2022/05/07 10:00:14;;;;;;;10.50;3.67;;;;;;;;;;4405917;32;20283;-56
2022/05/07 10:02:39;;;;;;;13.38;3.45;;;;;;;;;;4409658;32;20308;-55
2022/05/07 10:05:22;;;;;;;5.97;4.32;;;;;;;;;;4391764;32;20779;-55
2022/05/07 10:08:19;;;;;;;5.97;3.28;;;;;;;;;;4405994;32;20247;-56
2022/05/07 10:10:47;;;;;;;4.12;3.12;;;;;;;;;;4391856;32;20201;-56
2022/05/07 10:13:17;;;;;;;6.47;3.92;;;;;;;;;;4391272;32;20244;-56
2022/05/07 10:15:45;;;;;;;5.25;3.75;;;;;;;;;;4405303;32;20288;-55
2022/05/07 10:18:14;;;;;;;13.05;3.85;;;;;;;;;;4405847;32;20217;-55
2022/05/07 10:20:48;;;;;;;6.15;3.85;;;;;;;;;;4405299;32;20620;-55
2022/05/07 10:23:25;;;;;;;6.78;3.62;;;;;;;;;;4405834;32;20217;-55
2022/05/07 10:25:56;;;;;;;7.32;4.57;;;;;;;;;;4393802;32;20258;-56
2022/05/07 10:28:22;;;;;;;7.62;4.35;;;;;;;;;;4390254;32;20225;-56
2022/05/07 10:30:56;;;;;;;8.90;4.05;;;;;;;;;;4390221;32;20669;-55
2022/05/07 10:33:22;;;;;;;4.53;3.67;;;;;;;;;;4389652;32;20229;-55
2022/05/07 10:35:52;;;;;;;9.02;4.32;;;;;;;;;;4389798;32;20281;-56
2022/05/07 10:38:23;;;;;;;4.43;4.00;;;;;;;;;;4396856;32;20634;-55
2022/05/07 10:40:57;;;;;;;7.60;4.10;;;;;;;;;;4404734;32;20758;-56
2022/05/07 10:43:26;;;;;;;8.15;4.50;;;;;;;;;;4405107;32;20229;-55
2022/05/07 10:46:16;;;;;;;6.25;4.10;;;;;;;;;;4405402;32;20284;-57
2022/05/07 10:48:50;;;;;;;5.25;3.85;;;;;;;;;;4391489;32;20213;-54
2022/05/07 10:51:39;;;;;;;6.60;4.30;;;;;;;;;;4404633;32;20266;-54
2022/05/07 10:54:22;;;;;;;11.00;4.25;;;;;;;;;;4404221;32;20234;-55
2022/05/07 10:56:52;;;;;;;8.95;3.67;;;;;;;;;;4389775;32;20201;-55
2022/05/07 10:59:20;;;;;;;6.80;3.85;;;;;;;;;;4409678;32;20197;-55
2022/05/07 11:01:45;;;;;;;5.70;3.62;;;;;;;;;;4419720;32;20264;-55
2022/05/07 11:04:13;;;;;;;7.12;4.20;;;;;;;;;;4406424;32;20300;-57
2022/05/07 11:06:47;;;;;;;6.50;3.90;;;;;;;;;;4404525;32;20877;-55
2022/05/07 11:09:26;;;;;;;10.57;3.87;;;;;;;;;;4405258;32;20247;-57
2022/05/07 11:11:54;;;;;;;4.28;3.70;;;;;;;;;;4419783;32;20272;-55
2022/05/07 11:14:30;;;;;;;6.85;3.97;;;;;;;;;;4419875;32;20256;-56
2022/05/07 11:16:57;;;;;;;4.12;3.72;;;;;;;;;;4419695;32;20225;-55
2022/05/07 11:19:26;;;;;;;5.32;4.07;;;;;;;;;;4419280;32;20258;-55
2022/05/07 11:21:53;;;;;;;4.43;3.45;;;;;;;;;;4399287;32;20319;-55
2022/05/07 11:24:22;;;;;;;3.67;3.37;;;;;;;;;;4390788;32;20273;-55
2022/05/07 11:26:52;;;;;;;14.93;3.45;;;;;;;;;;4389999;32;20210;-55
2022/05/07 11:29:19;;;;;;;5.75;3.53;;;;;;;;;;4404476;32;20198;-55
2022/05/07 11:31:57;;;;;;;5.93;3.42;;;;;;;;;;4404234;32;20699;-55
2022/05/07 11:34:33;;;;;;;6.78;4.03;;;;;;;;;;4404586;32;20651;-55
2022/05/07 11:37:20;;;;;;;7.05;3.05;;;;;;;;;;4404361;32;20287;-55
2022/05/07 11:39:59;;;;;;;8.32;3.33;;;;;;;;;;4389221;32;20360;-54
2022/05/07 11:42:44;;;;;;;5.30;3.42;;;;;;;;;;4389131;32;20229;-54
2022/05/07 11:45:29;;;;;;;4.18;2.53;;;;;;;;;;4389373;32;20222;-57
2022/05/07 11:47:58;;;;;;;6.20;3.58;;;;;;;;;;4375281;32;20720;-55
2022/05/07 11:50:24;;;;;;;6.57;3.95;;;;;;;;;;4390444;32;20296;-55
2022/05/07 11:52:51;;;;;;;3.15;2.55;;;;;;;;;;4404264;32;20543;-55
2022/05/07 11:55:17;;;;;;;3.72;3.05;;;;;;;;;;4404073;32;20237;-56
2022/05/07 11:57:46;;;;;;;8.10;3.45;;;;;;;;;;4389896;32;20421;-54
2022/05/07 12:00:16;;;;;;;7.03;3.30;;;;;;;;;;4403885;32;20205;-55
2022/05/07 12:03:01;;;;;;;4.10;3.37;;;;;;;;;;4403504;32;20271;-55
2022/05/07 12:05:41;;;;;;;5.62;2.85;;;;;;;;;;4400921;32;20553;-55
2022/05/07 12:08:20;;;;;;;4.57;3.17;;;;;;;;;;4389334;32;20256;-56
2022/05/07 12:10:47;;;;;;;7.30;3.62;;;;;;;;;;4408805;32;20225;-54
2022/05/07 12:13:14;;;;;;;3.80;2.87;;;;;;;;;;4419694;32;20300;-55
2022/05/07 12:18:26;;;;;;;5.00;2.55;;;;;;;;;;4395075;32;20249;-55
2022/05/07 12:20:52;;;;;;;3.03;2.53;;;;;;;;;;4388359;32;20273;-56
2022/05/07 12:31:31;;;;;;;8.48;2.80;;;;;;;;;;4402921;32;20550;-54
2022/05/07 12:33:56;;;;;;;10.05;3.12;;;;;;;;;;4403777;32;20526;-56
2022/05/07 12:36:22;;;;;;;10.35;3.62;;;;;;;;;;4403330;32;20268;-56
2022/05/07 12:38:48;;;;;;;4.05;2.90;;;;;;;;;;4403982;32;20669;-53
2022/05/07 12:41:13;;;;;;;11.12;3.17;;;;;;;;;;4403254;32;20306;-55
2022/05/07 12:43:39;;;;;;;6.35;2.60;;;;;;;;;;4403361;32;20749;-54
2022/05/07 12:46:05;;;;;;;4.87;2.70;;;;;;;;;;4404045;32;20344;-54
2022/05/07 12:48:30;;;;;;;7.43;2.90;;;;;;;;;;4403656;32;20300;-54
2022/05/07 12:50:56;;;;;;;3.78;3.35;;;;;;;;;;4408033;32;20284;-55
2022/05/07 12:53:21;;;;;;;8.88;3.78;;;;;;;;;;4418800;32;20221;-55
2022/05/07 12:55:47;;;;;;;4.45;2.50;;;;;;;;;;4419577;32;20284;-54
2022/05/07 12:58:13;;;;;;;4.03;3.00;;;;;;;;;;4417657;32;20267;-55
2022/05/07 13:00:40;;;;;;;4.15;2.75;;;;;;;;;;4406729;32;20289;-55
2022/05/07 13:03:07;;;;;;;7.35;2.65;;;;;;;;;;4406262;32;20233;-53
2022/05/07 13:05:35;;;;;;;4.95;3.20;;;;;;;;;;4406514;32;20240;-53
2022/05/07 13:08:03;;;;;;;3.65;2.80;;;;;;;;;;4406556;32;20237;-56
2022/05/07 13:10:29;;;;;;;5.03;3.45;;;;;;;;;;4413888;32;20343;-55
2022/05/07 13:12:54;;;;;;;5.28;3.75;;;;;;;;;;4405675;32;20221;-55
2022/05/07 13:15:20;;;;;;;8.10;5.72;;;;;;;;;;4390973;32;20363;-55
2022/05/07 13:17:45;;;;;;;5.35;3.15;;;;;;;;;;4391426;32;20376;-54
2022/05/07 13:20:11;;;;;;;5.35;3.33;;;;;;;;;;4390626;32;20268;-55
2022/05/07 13:22:38;;;;;;;7.40;3.08;;;;;;;;;;4391062;32;20229;-56
2022/05/07 13:25:04;;;;;;;3.28;2.75;;;;;;;;;;4397859;32;20213;-56
2022/05/07 13:27:31;;;;;;;4.35;2.65;;;;;;;;;;4406156;32;20295;-55
2022/05/07 13:29:56;;;;;;;5.93;2.65;;;;;;;;;;4406033;32;20213;-56
2022/05/07 13:32:22;;;;;;;5.28;3.45;;;;;;;;;;4405100;32;20251;-55
2022/05/07 13:34:47;;;;;;;10.63;3.47;;;;;;;;;;4405669;32;20292;-56
2022/05/07 13:37:13;;;;;;;3.47;2.40;;;;;;;;;;4406288;32;20734;-55
2022/05/07 13:39:38;;;;;;;4.72;3.03;;;;;;;;;;4406286;32;20301;-56
2022/05/07 13:42:04;;;;;;;2.78;2.30;;;;;;;;;;4406332;32;20218;-55
2022/05/07 13:44:30;;;;;;;3.87;3.05;;;;;;;;;;4405942;32;20292;-57
2022/05/07 13:46:55;;;;;;;7.18;2.75;;;;;;;;;;4407873;32;20244;-56
2022/05/07 13:49:21;;;;;;;5.30;3.47;;;;;;;;;;4420976;32;20272;-55
2022/05/07 13:51:46;;;;;;;9.25;3.40;;;;;;;;;;4420661;32;20225;-55
2022/05/07 13:54:12;;;;;;;5.15;3.33;;;;;;;;;;4420318;32;20322;-55
2022/05/07 13:56:37;;;;;;;6.93;3.62;;;;;;;;;;4405857;32;20214;-54
2022/05/07 13:59:03;;;;;;;6.10;3.05;;;;;;;;;;4401715;32;20229;-55
2022/05/07 14:01:28;;;;;;;7.87;3.42;;;;;;;;;;4390817;32;20349;-55
2022/05/07 14:03:54;;;;;;;5.78;3.35;;;;;;;;;;4402209;32;20664;-56
2022/05/07 14:06:19;;;;;;;4.72;3.50;;;;;;;;;;4405122;32;20299;-55
2022/05/07 14:08:46;;;;;;;4.95;2.95;;;;;;;;;;4405933;32;20352;-56
2022/05/07 14:11:12;;;;;;;5.87;3.05;;;;;;;;;;4416289;32;20280;-56
2022/05/07 14:13:37;;;;;;;4.32;2.53;;;;;;;;;;4421060;32;20225;-55
2022/05/07 14:16:03;;;;;;;8.32;3.12;;;;;;;;;;4420604;32;20280;-56
2022/05/07 14:18:29;;;;;;;8.35;3.00;;;;;;;;;;4421071;32;20716;-56
2022/05/07 14:20:56;;;;;;;3.92;3.05;;;;;;;;;;4421015;32;20275;-57
2022/05/07 14:23:22;;;;;;;3.15;2.78;;;;;;;;;;4394237;32;20515;-56
2022/05/07 14:25:48;;;;;;;6.50;3.90;;;;;;;;;;4395422;32;20733;-56
2022/05/07 14:28:13;;;;;;;7.47;3.28;;;;;;;;;;4406039;32;20226;-55
2022/05/07 14:30:39;;;;;;;7.07;2.85;;;;;;;;;;4405378;32;20323;-55
2022/05/07 14:33:07;;;;;;;8.95;3.20;;;;;;;;;;4405735;32;20723;-55
2022/05/07 14:35:32;;;;;;;4.37;2.78;;;;;;;;;;4405421;32;20594;-55
2022/05/07 14:37:58;;;;;;;4.65;2.67;;;;;;;;;;4405461;32;20296;-54
2022/05/07 14:40:33;;;;;;;10.85;3.95;;;;;;;;;;4404716;32;20614;-55
2022/05/07 14:43:03;;;;;;;7.65;2.60;;;;;;;;;;4391173;32;20308;-54
2022/05/07 14:45:36;;;;;;;9.23;3.95;;;;;;;;;;4405708;32;20265;-53
2022/05/07 14:48:02;;;;;;;7.78;3.80;;;;;;;;;;4405049;32;20297;-54
2022/05/07 14:50:28;;;;;;;7.87;3.05;;;;;;;;;;4405576;32;20239;-55
2022/05/07 14:52:55;;;;;;;10.70;3.17;;;;;;;;;;4405094;32;20301;-54
2022/05/07 14:55:22;;;;;;;6.80;2.80;;;;;;;;;;4404604;32;20235;-54
2022/05/07 14:57:48;;;;;;;4.70;2.62;;;;;;;;;;4403166;32;20233;-55
2022/05/07 15:00:14;;;;;;;13.23;2.87;;;;;;;;;;4389929;32;20276;-56
2022/05/07 15:02:46;;;;;;;9.13;3.17;;;;;;;;;;4393429;32;20300;-56
2022/05/07 15:05:14;;;;;;;10.23;3.00;;;;;;;;;;4403016;32;20190;-55
2022/05/07 15:07:40;;;;;;;6.70;2.37;;;;;;;;;;4388974;32;20646;-54
2022/05/07 15:12:52;;;;;;;7.37;3.17;;;;;;;;;;4420045;32;20311;-56
2022/05/07 15:15:18;;;;;;;7.60;2.85;;;;;;;;;;4419842;32;20306;-56
2022/05/07 15:17:43;;;;;;;10.43;2.50;;;;;;;;;;4419260;32;20221;-54
2022/05/07 15:20:10;;;;;;;6.72;2.72;;;;;;;;;;4419764;32;20284;-56
2022/05/07 15:22:37;;;;;;;9.35;2.90;;;;;;;;;;4419524;32;20228;-56